Time;durP1;ratioP1;P1;durP2;ratioP2;P2;SDS_P1;SDS_P2;PMS_P1;PMS_P2;Temp;Humidity;BMP_temperature;BMP_pressure;BME280_temperature;BME280_humidity;BME280_pressure;Samples;Min_cycle;Max_cycle;Signal;HPM_P1;HPM_P2
2022/10/30 00:00:23;;;;;;;14.90;4.20;;;;;;;14.80;100.00;96662.78;5011997;28;20773;-76
2022/10/30 00:02:49;;;;;;;15.30;3.30;;;;;;;14.71;100.00;96662.00;5028812;28;20041;-76
2022/10/30 00:05:16;;;;;;;12.07;3.60;;;;;;;14.69;100.00;96661.38;5028453;28;20038;-77
2022/10/30 00:07:42;;;;;;;15.55;3.97;;;;;;;14.63;100.00;96662.06;5027821;28;20053;-77
2022/10/30 00:10:09;;;;;;;15.07;4.00;;;;;;;14.55;100.00;96660.28;5044192;28;20132;-77
2022/10/30 00:12:34;;;;;;;11.38;4.20;;;;;;;14.45;100.00;96666.75;5011811;28;20036;-76
2022/10/30 00:15:00;;;;;;;12.25;4.28;;;;;;;14.38;100.00;96672.75;5028253;28;20041;-77
2022/10/30 00:17:26;;;;;;;9.98;3.50;;;;;;;14.36;100.00;96671.25;5018858;28;20647;-77
2022/10/30 00:19:51;;;;;;;12.88;4.05;;;;;;;14.33;100.00;96677.72;5024001;28;20094;-77
2022/10/30 00:22:17;;;;;;;14.15;4.40;;;;;;;14.28;100.00;96673.94;5008186;28;20081;-76
2022/10/30 00:24:43;;;;;;;18.48;5.03;;;;;;;14.23;100.00;96670.97;5009640;28;20040;-77
2022/10/30 00:27:08;;;;;;;12.80;3.65;;;;;;;14.24;100.00;96676.09;5029595;28;20033;-76
2022/10/30 00:29:34;;;;;;;15.25;4.25;;;;;;;14.22;100.00;96672.81;5027329;28;20073;-77
2022/10/30 00:32:00;;;;;;;12.32;4.22;;;;;;;14.19;100.00;96673.16;5029258;28;20761;-76
2022/10/30 00:34:25;;;;;;;13.45;4.22;;;;;;;14.23;100.00;96670.97;5025284;28;20030;-77
2022/10/30 00:36:51;;;;;;;17.77;6.37;;;;;;;14.19;100.00;96670.50;5017850;28;20122;-77
2022/10/30 00:39:17;;;;;;;19.90;4.80;;;;;;;14.12;100.00;96669.53;5010670;28;20163;-76
2022/10/30 00:41:44;;;;;;;19.30;4.87;;;;;;;14.08;100.00;96657.63;5027460;28;20538;-77
2022/10/30 00:44:34;;;;;;;10.97;4.90;;;;;;;13.99;100.00;96661.31;5027758;28;20160;-77
2022/10/30 00:47:03;;;;;;;15.73;5.13;;;;;;;13.95;100.00;96659.97;5027574;28;20037;-77
2022/10/30 00:49:40;;;;;;;13.80;3.97;;;;;;;13.86;100.00;96652.09;5027450;28;20033;-77
2022/10/30 00:52:09;;;;;;;14.03;5.40;;;;;;;13.91;100.00;96655.03;5008683;28;20736;-77
2022/10/30 00:54:35;;;;;;;16.00;4.57;;;;;;;14.00;100.00;96650.56;5042318;28;20033;-77
2022/10/30 00:57:04;;;;;;;15.47;4.37;;;;;;;13.94;100.00;96656.53;5026503;28;20065;-77
2022/10/30 00:59:34;;;;;;;16.93;4.53;;;;;;;13.81;100.00;96664.16;5029940;28;20017;-77
2022/10/30 01:02:02;;;;;;;17.47;5.07;;;;;;;13.75;100.00;96659.53;5026286;28;20072;-78
2022/10/30 01:04:30;;;;;;;11.27;4.73;;;;;;;13.74;100.00;96664.00;5027145;28;20033;-76
2022/10/30 01:06:57;;;;;;;15.03;5.23;;;;;;;13.68;100.00;96662.03;5027165;28;20040;-76
2022/10/30 01:09:23;;;;;;;16.17;5.10;;;;;;;13.73;100.00;96662.38;5018872;28;20021;-76
2022/10/30 01:11:49;;;;;;;12.47;5.60;;;;;;;13.62;100.00;96670.66;5026828;28;20029;-76
2022/10/30 01:14:19;;;;;;;13.17;4.60;;;;;;;13.60;100.00;96654.13;5026928;28;20022;-77
2022/10/30 01:17:23;;;;;;;12.67;5.37;;;;;;;13.53;100.00;96661.06;5027023;28;20116;-77
2022/10/30 01:20:27;;;;;;;14.27;5.30;;;;;;;13.51;100.00;96655.94;5007047;28;20040;-77
2022/10/30 01:22:56;;;;;;;20.93;6.07;;;;;;;13.39;100.00;96662.56;5017577;28;20033;-77
2022/10/30 01:25:52;;;;;;;12.63;4.97;;;;;;;13.33;100.00;96656.13;5026922;28;20136;-76
2022/10/30 01:28:46;;;;;;;18.10;5.83;;;;;;;13.36;100.00;96658.44;5026668;28;20671;-76
2022/10/30 01:31:36;;;;;;;12.73;5.13;;;;;;;13.36;100.00;96650.50;5008534;28;20436;-76
2022/10/30 01:34:24;;;;;;;10.33;4.63;;;;;;;13.31;100.00;96652.00;5018151;28;20037;-77
2022/10/30 01:37:00;;;;;;;12.73;5.23;;;;;;;13.32;100.00;96653.66;5026820;28;20048;-77
2022/10/30 01:39:31;;;;;;;12.00;5.60;;;;;;;13.28;100.00;96652.31;5010471;28;20068;-76
2022/10/30 01:41:57;;;;;;;12.17;5.10;;;;;;;13.21;100.00;96658.25;5027561;28;20115;-77
2022/10/30 01:44:31;;;;;;;13.97;5.83;;;;;;;13.12;100.00;96653.97;5027803;28;20097;-76
2022/10/30 01:47:08;;;;;;;15.20;6.03;;;;;;;13.03;100.00;96654.94;5028875;28;20126;-76
2022/10/30 01:49:55;;;;;;;15.53;5.60;;;;;;;13.08;100.00;96660.56;5035928;28;20618;-77
2022/10/30 01:52:45;;;;;;;16.23;5.70;;;;;;;13.06;100.00;96659.06;5039121;28;20045;-77
2022/10/30 01:55:55;;;;;;;16.80;5.90;;;;;;;13.07;100.00;96656.25;5013883;28;20398;-76
2022/10/30 01:58:42;;;;;;;14.43;6.93;;;;;;;13.08;100.00;96660.56;4964293;28;20035;-76
2022/10/30 02:01:07;;;;;;;12.03;5.70;;;;;;;13.06;100.00;96653.78;5004544;28;20069;-76
2022/10/30 02:03:33;;;;;;;14.37;5.50;;;;;;;13.01;100.00;96656.94;5016777;28;20037;-77
2022/10/30 02:06:00;;;;;;;17.87;6.03;;;;;;;12.95;100.00;96655.78;5030407;28;20635;-76
2022/10/30 02:08:28;;;;;;;18.03;6.90;;;;;;;12.90;100.00;96658.06;5029966;28;20041;-77
2022/10/30 02:10:55;;;;;;;22.20;6.63;;;;;;;12.86;100.00;96656.75;5030326;28;20040;-76
2022/10/30 02:13:35;;;;;;;17.47;6.27;;;;;;;12.84;100.00;96650.78;4996241;28;20032;-77
2022/10/30 02:16:02;;;;;;;14.60;6.67;;;;;;;12.80;100.00;96664.47;5025163;28;20039;-77
2022/10/30 02:18:28;;;;;;;14.63;5.60;;;;;;;12.87;100.00;96660.19;5013520;28;20059;-77
2022/10/30 02:20:54;;;;;;;16.60;6.10;;;;;;;12.78;100.00;96659.38;5029622;28;20092;-77
2022/10/30 02:23:21;;;;;;;15.33;6.10;;;;;;;12.73;100.00;96659.03;5030261;28;20410;-76
2022/10/30 02:25:49;;;;;;;14.60;5.80;;;;;;;12.64;100.00;96662.63;5030126;28;20041;-76
2022/10/30 02:28:14;;;;;;;13.67;6.27;;;;;;;12.54;100.00;96664.59;5029481;28;20064;-76
2022/10/30 02:30:42;;;;;;;19.80;6.50;;;;;;;12.59;100.00;96665.75;5020881;28;20096;-77
2022/10/30 02:33:09;;;;;;;16.80;6.77;;;;;;;12.61;100.00;96660.31;5022091;28;20587;-76
2022/10/30 02:35:35;;;;;;;17.27;7.43;;;;;;;12.58;100.00;96664.13;5029774;28;20124;-76
2022/10/30 02:38:02;;;;;;;13.30;6.13;;;;;;;12.52;100.00;96664.75;5030412;28;20044;-76
2022/10/30 02:40:27;;;;;;;14.80;6.00;;;;;;;12.52;100.00;96666.56;5030162;28;20414;-76
2022/10/30 02:42:55;;;;;;;17.93;7.30;;;;;;;12.41;100.00;96662.44;5030065;28;20037;-77
2022/10/30 02:45:21;;;;;;;20.33;7.00;;;;;;;12.39;100.00;96659.94;5011940;28;20084;-77
2022/10/30 02:47:47;;;;;;;14.93;6.33;;;;;;;12.34;100.00;96656.97;5029302;28;20033;-76
2022/10/30 02:50:13;;;;;;;16.33;7.23;;;;;;;12.30;100.00;96658.25;5029550;28;20426;-76
2022/10/30 02:52:39;;;;;;;16.43;7.67;;;;;;;12.26;100.00;96656.91;5029717;28;20036;-77
2022/10/30 02:55:04;;;;;;;16.53;6.83;;;;;;;12.25;100.00;96657.91;5030098;28;20041;-76
2022/10/30 02:57:30;;;;;;;15.47;7.17;;;;;;;12.22;100.00;96645.03;5005155;28;20030;-76
2022/10/30 02:59:56;;;;;;;21.33;7.47;;;;;;;12.15;100.00;96652.75;5011322;28;20471;-76
2022/10/30 03:02:22;;;;;;;13.30;7.23;;;;;;;12.07;100.00;96659.78;5033633;28;20037;-76
2022/10/30 03:04:48;;;;;;;15.43;6.20;;;;;;;11.99;100.00;96656.16;5031047;28;20033;-76
2022/10/30 03:07:14;;;;;;;11.30;4.93;;;;;;;12.08;100.00;96646.47;5014426;28;20037;-76
2022/10/30 03:09:39;;;;;;;11.97;5.33;;;;;;;12.05;100.00;96646.78;5030209;28;20049;-77
2022/10/30 03:12:06;;;;;;;15.10;5.30;;;;;;;12.03;100.00;96636.38;5031946;28;20037;-76
2022/10/30 03:14:32;;;;;;;14.73;5.20;;;;;;;12.02;100.00;96633.91;5030574;28;20044;-76
2022/10/30 03:16:58;;;;;;;14.40;5.80;;;;;;;12.03;100.00;96636.38;5047093;28;20033;-77
2022/10/30 03:19:23;;;;;;;13.70;5.47;;;;;;;11.99;100.00;96632.41;5030724;28;20431;-78
2022/10/30 03:21:52;;;;;;;16.53;6.40;;;;;;;11.98;100.00;96632.59;5026571;28;20569;-76
2022/10/30 03:24:18;;;;;;;13.33;4.67;;;;;;;11.91;100.00;96624.50;5033682;28;20029;-76
2022/10/30 03:26:44;;;;;;;12.83;5.50;;;;;;;11.97;100.00;96629.13;5030419;28;20048;-77
2022/10/30 03:29:09;;;;;;;17.07;5.30;;;;;;;11.86;100.00;96621.50;5014056;28;20029;-76
2022/10/30 03:31:35;;;;;;;11.60;4.60;;;;;;;11.87;100.00;96630.22;5016033;28;20449;-76
2022/10/30 03:34:12;;;;;;;16.70;5.37;;;;;;;11.79;100.00;96620.44;5015458;28;20036;-76
2022/10/30 03:36:40;;;;;;;14.70;5.60;;;;;;;11.67;100.00;96621.69;5013799;28;20094;-76
2022/10/30 03:39:06;;;;;;;14.23;4.80;;;;;;;11.63;100.00;96622.97;5030118;28;20032;-76
2022/10/30 03:41:33;;;;;;;15.47;4.60;;;;;;;11.66;100.00;96625.31;5030749;28;20033;-76
2022/10/30 03:43:59;;;;;;;17.43;5.70;;;;;;;11.64;100.00;96616.75;5030637;28;20025;-76
2022/10/30 03:46:25;;;;;;;16.57;4.83;;;;;;;11.66;100.00;96617.41;5030192;28;20414;-76
2022/10/30 03:48:54;;;;;;;19.70;4.90;;;;;;;11.57;100.00;96627.09;5030236;28;20490;-76
2022/10/30 03:51:20;;;;;;;12.43;4.00;;;;;;;11.52;100.00;96624.91;5030636;28;20032;-76
2022/10/30 03:53:46;;;;;;;15.67;4.43;;;;;;;11.49;100.00;96619.94;5014093;28;20022;-76
2022/10/30 03:56:12;;;;;;;13.33;4.03;;;;;;;11.48;100.00;96626.19;5030296;28;20033;-76
2022/10/30 03:58:44;;;;;;;12.30;4.10;;;;;;;11.51;100.00;96625.88;5014312;28;20029;-77
2022/10/30 04:01:13;;;;;;;13.70;4.77;;;;;;;11.54;100.00;96625.59;5030322;28;20041;-78
2022/10/30 04:03:42;;;;;;;10.93;4.10;;;;;;;11.54;100.00;96628.22;5025662;28;20033;-77
2022/10/30 04:06:10;;;;;;;10.47;4.47;;;;;;;11.47;100.00;96632.44;5012757;28;20033;-76
2022/10/30 04:08:36;;;;;;;14.23;4.80;;;;;;;11.47;100.00;96635.09;5011621;28;20033;-77
2022/10/30 04:11:02;;;;;;;10.80;3.50;;;;;;;11.37;100.00;96633.50;5027234;28;20036;-77
2022/10/30 04:13:28;;;;;;;12.53;4.10;;;;;;;11.38;100.00;96635.19;5012011;28;20025;-77
2022/10/30 04:15:55;;;;;;;15.07;4.87;;;;;;;11.33;100.00;96633.00;5028207;28;20037;-76
2022/10/30 04:18:22;;;;;;;13.20;4.20;;;;;;;11.26;100.00;96629.34;5027958;28;20022;-77
2022/10/30 04:20:48;;;;;;;16.37;4.77;;;;;;;11.23;100.00;96632.25;5029502;28;20032;-76
2022/10/30 04:23:16;;;;;;;13.30;3.97;;;;;;;11.21;100.00;96634.25;5027598;28;20025;-77
2022/10/30 04:25:43;;;;;;;11.43;3.70;;;;;;;11.25;100.00;96635.59;5027296;28;20495;-76
2022/10/30 04:28:10;;;;;;;12.00;4.27;;;;;;;11.25;100.00;96643.47;5027892;28;20021;-76
2022/10/30 04:30:37;;;;;;;16.27;4.70;;;;;;;11.30;100.00;96638.56;5024604;28;20526;-76
2022/10/30 04:33:04;;;;;;;11.07;4.77;;;;;;;11.37;100.00;96641.41;5027440;28;20043;-77
2022/10/30 04:35:33;;;;;;;16.30;5.63;;;;;;;11.44;100.00;96634.56;5011691;28;20037;-77
2022/10/30 04:38:00;;;;;;;14.77;3.87;;;;;;;11.51;100.00;96635.59;5027308;28;20030;-77
2022/10/30 04:40:28;;;;;;;12.47;4.37;;;;;;;11.56;100.00;96642.03;5008225;28;20498;-77
2022/10/30 04:42:58;;;;;;;10.70;4.70;;;;;;;11.54;100.00;96636.13;5009034;28;20025;-77
2022/10/30 04:45:24;;;;;;;12.77;3.50;;;;;;;11.55;100.00;96629.84;5014325;28;20524;-76
2022/10/30 04:47:51;;;;;;;15.83;4.40;;;;;;;11.65;100.00;96626.28;5027760;28;20409;-76
2022/10/30 04:50:18;;;;;;;23.40;4.77;;;;;;;11.79;100.00;96621.25;5028077;28;20030;-76
2022/10/30 04:52:43;;;;;;;16.57;5.10;;;;;;;11.86;100.00;96626.75;5028061;28;20033;-76
2022/10/30 04:55:10;;;;;;;13.27;4.13;;;;;;;11.91;100.00;96624.50;5011367;28;20423;-77
2022/10/30 04:57:37;;;;;;;14.17;4.03;;;;;;;11.84;100.00;96635.75;5027363;28;20662;-77
2022/10/30 05:00:05;;;;;;;16.40;4.37;;;;;;;11.64;100.00;96641.28;5014490;28;20095;-76
2022/10/30 05:02:30;;;;;;;16.17;6.37;;;;;;;11.59;100.00;96637.44;5041348;28;20699;-77
2022/10/30 05:04:57;;;;;;;13.17;5.50;;;;;;;11.60;100.00;96639.09;5043078;28;20368;-77
2022/10/30 05:07:23;;;;;;;23.73;13.80;;;;;;;11.34;100.00;96645.19;5027213;28;20044;-78
2022/10/30 05:09:48;;;;;;;13.43;6.13;;;;;;;11.30;100.00;96649.94;5026806;28;20034;-76
2022/10/30 05:12:15;;;;;;;11.83;4.97;;;;;;;11.30;100.00;96652.59;5026519;28;20053;-77
2022/10/30 05:14:51;;;;;;;15.87;4.97;;;;;;;11.34;100.00;96650.47;4992942;28;20104;-77
2022/10/30 05:17:17;;;;;;;11.00;4.13;;;;;;;11.29;100.00;96647.47;5041170;28;20037;-78
2022/10/30 05:19:42;;;;;;;16.07;4.97;;;;;;;11.24;100.00;96645.28;5027485;28;20398;-77
2022/10/30 05:22:09;;;;;;;15.73;4.93;;;;;;;11.24;100.00;96640.03;5025416;28;20022;-77
2022/10/30 05:24:34;;;;;;;20.90;4.70;;;;;;;11.25;100.00;96640.84;5028845;28;20033;-78
2022/10/30 05:27:00;;;;;;;12.97;4.60;;;;;;;11.33;100.00;96639.13;5011054;28;20029;-77
2022/10/30 05:29:28;;;;;;;11.70;4.57;;;;;;;11.34;100.00;96629.41;5027176;28;20072;-76
2022/10/30 05:31:54;;;;;;;12.10;4.30;;;;;;;11.36;100.00;96639.78;5027685;28;20057;-76
2022/10/30 05:34:25;;;;;;;20.27;8.40;;;;;;;11.48;100.00;96634.09;5028040;28;20049;-77
2022/10/30 05:36:52;;;;;;;18.90;9.47;;;;;;;11.51;100.00;96638.25;5018959;28;20087;-77
2022/10/30 05:39:19;;;;;;;13.70;4.60;;;;;;;11.73;100.00;96634.22;5028005;28;20037;-76
2022/10/30 05:41:48;;;;;;;16.07;4.40;;;;;;;11.88;100.00;96629.25;5030633;28;20064;-77
2022/10/30 05:44:16;;;;;;;10.03;4.73;;;;;;;11.70;100.00;96639.81;5041974;28;20033;-77
2022/10/30 05:46:44;;;;;;;11.27;5.03;;;;;;;11.32;100.00;96639.25;5037575;28;20092;-77
2022/10/30 05:49:24;;;;;;;13.23;4.87;;;;;;;11.39;100.00;96631.56;5026559;28;20037;-77
2022/10/30 05:51:50;;;;;;;14.33;5.20;;;;;;;11.32;100.00;96642.72;5010754;28;20454;-76
2022/10/30 05:54:16;;;;;;;15.07;4.90;;;;;;;11.41;100.00;96637.50;5027195;28;20041;-77
2022/10/30 05:56:56;;;;;;;12.03;4.73;;;;;;;11.49;100.00;96638.38;5026914;28;20044;-77
2022/10/30 05:59:22;;;;;;;15.73;5.07;;;;;;;11.51;100.00;96636.44;5010577;28;20048;-76
2022/10/30 06:01:49;;;;;;;15.90;5.63;;;;;;;11.49;100.00;96638.38;5027341;28;20037;-77
2022/10/30 06:04:14;;;;;;;12.97;5.37;;;;;;;11.44;100.00;96643.28;5028546;28;20034;-76
2022/10/30 06:06:41;;;;;;;14.57;5.30;;;;;;;11.47;100.00;96648.25;5027076;28;20037;-76
2022/10/30 06:09:07;;;;;;;13.83;5.67;;;;;;;11.53;100.00;96644.97;5027332;28;20118;-77
2022/10/30 06:11:48;;;;;;;13.27;4.80;;;;;;;11.43;100.00;96641.63;5012986;28;20096;-76
2022/10/30 06:14:14;;;;;;;18.40;5.77;;;;;;;11.37;100.00;96649.31;5028167;28;20084;-77
2022/10/30 06:16:47;;;;;;;13.77;5.33;;;;;;;11.30;100.00;96649.09;5024531;28;20570;-76
2022/10/30 06:19:38;;;;;;;13.93;5.27;;;;;;;11.23;100.00;96642.78;5026046;28;20056;-77
2022/10/30 06:22:24;;;;;;;11.20;5.07;;;;;;;11.21;100.00;96653.50;5027066;28;20513;-77
2022/10/30 06:24:57;;;;;;;17.60;5.60;;;;;;;11.25;100.00;96646.13;5023291;28;20074;-77
2022/10/30 06:27:43;;;;;;;14.83;6.60;;;;;;;11.32;100.00;96647.97;5025151;28;20045;-77
2022/10/30 06:30:09;;;;;;;19.50;6.33;;;;;;;11.30;100.00;96651.72;5026002;28;20414;-77
2022/10/30 06:32:35;;;;;;;15.43;6.07;;;;;;;11.33;100.00;96656.69;5025746;28;20050;-77
2022/10/30 06:35:02;;;;;;;13.77;6.13;;;;;;;11.37;100.00;96655.44;5026044;28;20033;-77
2022/10/30 06:37:29;;;;;;;10.67;5.43;;;;;;;11.46;100.00;96656.28;5025278;28;20017;-77
2022/10/30 06:39:56;;;;;;;16.33;5.03;;;;;;;11.48;100.00;96657.81;5025894;28;20064;-77
2022/10/30 06:42:50;;;;;;;15.30;5.93;;;;;;;11.46;100.00;96651.03;5030235;28;20143;-77
2022/10/30 06:45:30;;;;;;;15.50;6.53;;;;;;;11.41;100.00;96651.50;5012961;28;20091;-78
2022/10/30 06:48:00;;;;;;;15.80;7.13;;;;;;;11.38;100.00;96651.81;5029282;28;20037;-76
2022/10/30 06:50:27;;;;;;;16.67;6.83;;;;;;;11.31;100.00;96661.31;5015320;28;20033;-78
2022/10/30 06:52:54;;;;;;;12.20;5.60;;;;;;;11.35;100.00;96657.38;5016151;28;20052;-78
2022/10/30 06:55:20;;;;;;;16.20;5.93;;;;;;;11.32;100.00;96661.13;5030917;28;20037;-77
2022/10/30 06:58:04;;;;;;;13.63;5.60;;;;;;;11.47;100.00;96656.16;5029403;28;20033;-77
2022/10/30 07:00:40;;;;;;;13.10;5.37;;;;;;;11.50;100.00;96666.38;5029260;28;20029;-76
2022/10/30 07:03:31;;;;;;;17.23;5.50;;;;;;;11.70;100.00;96663.53;5037170;28;20053;-77
2022/10/30 07:05:58;;;;;;;14.63;6.17;;;;;;;11.87;100.00;96664.47;5009164;28;20038;-77
2022/10/30 07:08:23;;;;;;;15.90;6.53;;;;;;;12.04;100.00;96658.31;5026320;28;20459;-77
2022/10/30 07:10:49;;;;;;;13.73;5.73;;;;;;;12.20;100.00;96657.53;5023541;28;20447;-77
2022/10/30 07:13:44;;;;;;;12.50;6.27;;;;;;;12.74;100.00;96647.47;5010278;28;20042;-77
2022/10/30 07:16:32;;;;;;;9.13;4.57;;;;;;;13.04;100.00;96646.03;5029160;28;20559;-77
2022/10/30 07:18:58;;;;;;;19.73;5.50;;;;;;;13.32;100.00;96641.28;5008835;28;20056;-77
2022/10/30 07:21:25;;;;;;;15.63;5.10;;;;;;;13.29;100.00;96652.19;5020762;28;20029;-77
2022/10/30 07:23:51;;;;;;;16.10;4.60;;;;;;;13.55;100.00;96633.50;5028386;28;20402;-78
2022/10/30 07:26:36;;;;;;;15.93;5.20;;;;;;;13.73;100.00;96635.94;5009447;28;20041;-78
2022/10/30 07:29:06;;;;;;;12.30;4.70;;;;;;;14.25;100.00;96630.16;5024996;28;20034;-78
2022/10/30 07:31:42;;;;;;;10.33;4.33;;;;;;;14.53;100.00;96633.16;5026129;28;20109;-78
2022/10/30 07:34:37;;;;;;;10.53;5.17;;;;;;;14.84;100.00;96630.47;5012399;28;20045;-78
2022/10/30 07:37:23;;;;;;;12.00;4.87;;;;;;;14.61;100.00;96632.28;5015033;28;20099;-79
2022/10/30 07:40:11;;;;;;;13.17;4.33;;;;;;;15.12;100.00;96621.16;5039934;28;20052;-78
2022/10/30 07:42:46;;;;;;;16.00;5.33;;;;;;;15.31;100.00;96607.44;5033006;28;20037;-78
2022/10/30 07:45:32;;;;;;;11.27;4.27;;;;;;;15.97;100.00;96615.56;5017259;28;20077;-78
2022/10/30 07:48:16;;;;;;;13.37;4.50;;;;;;;16.02;100.00;96614.00;5031533;28;20044;-79
2022/10/30 07:50:54;;;;;;;13.97;4.47;;;;;;;16.21;100.00;96620.59;5030113;28;20498;-78
2022/10/30 07:53:20;;;;;;;9.98;4.15;;;;;;;15.78;100.00;96625.72;5024870;28;20045;-78
2022/10/30 07:55:47;;;;;;;13.27;4.70;;;;;;;16.47;100.00;96617.44;5011210;28;20045;-79
2022/10/30 07:58:12;;;;;;;9.20;4.18;;;;;;;17.12;100.00;96620.16;5013352;28;20053;-78
2022/10/30 08:01:10;;;;;;;12.40;4.57;;;;;;;17.50;100.00;96611.88;5029061;28;20101;-78
2022/10/30 08:03:36;;;;;;;11.88;4.90;;;;;;;17.24;100.00;96620.47;5018472;28;20038;-79
2022/10/30 08:06:10;;;;;;;15.48;4.57;;;;;;;18.22;100.00;96605.38;5017872;28;20099;-79
2022/10/30 08:08:37;;;;;;;15.77;5.05;;;;;;;18.30;100.00;96603.38;5031576;28;20044;-79
2022/10/30 08:11:14;;;;;;;8.45;3.90;;;;;;;18.57;100.00;96608.78;5017460;28;20751;-78
2022/10/30 08:13:40;;;;;;;10.73;4.57;;;;;;;18.36;100.00;96613.22;5013608;28;20104;-78
2022/10/30 08:16:06;;;;;;;11.98;4.22;;;;;;;19.23;100.00;96611.59;5039105;28;20033;-77
2022/10/30 08:18:32;;;;;;;13.32;4.32;;;;;;;19.55;100.00;96612.66;5022102;28;20083;-76
2022/10/30 08:20:57;;;;;;;17.65;4.78;;;;;;;20.06;100.00;96613.81;5028891;28;20113;-77
2022/10/30 08:23:23;;;;;;;12.85;4.63;;;;;;;19.70;100.00;96614.28;5011158;28;20103;-77
2022/10/30 08:25:49;;;;;;;12.38;4.15;;;;;;;20.24;100.00;96610.47;5027628;28;20021;-77
2022/10/30 08:28:15;;;;;;;14.30;4.35;;;;;;;20.31;100.00;96608.59;5016280;28;20072;-77
2022/10/30 08:30:42;;;;;;;12.10;4.20;;;;;;;21.02;100.00;96610.31;5024308;28;20048;-77
2022/10/30 08:33:14;;;;;;;13.55;3.97;;;;;;;20.95;100.00;96607.66;5008375;28;20038;-77
2022/10/30 08:35:58;;;;;;;10.95;3.80;;;;;;;21.42;100.00;96607.38;5025215;28;20088;-77
2022/10/30 08:38:26;;;;;;;15.25;4.05;;;;;;;20.69;100.00;96614.03;5027773;28;20116;-77
2022/10/30 08:41:23;;;;;;;9.18;4.50;;;;;;;21.25;100.00;96601.72;5013674;28;20584;-77
2022/10/30 08:43:51;;;;;;;13.57;4.35;;;;;;;20.59;100.00;96610.13;5027194;28;20110;-77
2022/10/30 08:46:17;;;;;;;10.90;3.55;;;;;;;21.33;100.00;96598.78;5023169;28;20486;-77
2022/10/30 08:48:42;;;;;;;11.80;4.45;;;;;;;21.25;100.00;96606.25;5010005;28;20611;-77
2022/10/30 08:51:08;;;;;;;11.27;4.35;;;;;;;20.75;100.00;96601.63;5027211;28;20041;-78
2022/10/30 08:53:41;;;;;;;10.90;3.50;;;;;;;21.84;100.00;96599.59;5022678;28;20038;-77
2022/10/30 08:56:13;;;;;;;10.88;3.45;;;;;;;22.02;100.00;96596.91;5007276;28;20096;-77
2022/10/30 08:59:09;;;;;;;12.38;3.80;;;;;;;21.83;100.00;96593.44;5018670;28;20041;-78
2022/10/30 09:01:35;;;;;;;13.82;4.35;;;;;;;22.32;100.00;96591.66;5036739;28;20037;-78
2022/10/30 09:04:19;;;;;;;11.23;4.15;;;;;;;22.68;100.00;96589.97;5021406;28;20034;-77
2022/10/30 09:06:59;;;;;;;9.63;3.50;;;;;;;22.12;100.00;96591.84;5022014;28;20041;-77
2022/10/30 09:09:43;;;;;;;11.95;3.65;;;;;;;22.47;100.00;96590.47;5025054;28;20056;-78
2022/10/30 09:12:10;;;;;;;14.85;3.92;;;;;;;22.73;100.00;96586.59;5035041;28;20037;-78
2022/10/30 09:14:42;;;;;;;10.95;3.92;;;;;;;23.02;100.00;96585.00;5007217;28;20041;-77
2022/10/30 09:17:09;;;;;;;9.45;3.50;;;;;;;23.24;100.00;96587.97;5018764;28;20502;-77
2022/10/30 09:19:36;;;;;;;10.02;3.63;;;;;;;23.95;100.00;96588.84;5024344;28;20033;-77
2022/10/30 09:22:03;;;;;;;12.85;3.90;;;;;;;23.59;100.00;96585.31;5016387;28;20041;-77
2022/10/30 09:24:30;;;;;;;13.65;4.68;;;;;;;23.39;100.00;96584.81;5010540;28;20115;-77
2022/10/30 09:26:58;;;;;;;10.27;3.88;;;;;;;23.59;100.00;96585.31;5036806;28;20037;-78
2022/10/30 09:29:25;;;;;;;8.80;3.65;;;;;;;22.70;100.00;96587.06;5029319;28;20036;-77
2022/10/30 09:32:10;;;;;;;15.88;4.00;;;;;;;24.09;100.00;96582.16;5028242;28;20059;-78
2022/10/30 09:35:02;;;;;;;10.43;3.40;;;;;;;25.00;100.00;96587.72;5033805;28;20033;-77
2022/10/30 09:37:36;;;;;;;9.65;3.58;;;;;;;24.88;100.00;96589.63;5011460;28;20045;-77
2022/10/30 09:40:09;;;;;;;10.10;3.38;;;;;;;25.15;100.00;96596.09;5006356;28;20041;-77
2022/10/30 09:42:49;;;;;;;9.93;3.78;;;;;;;25.21;100.00;96590.78;5027278;28;20458;-78
2022/10/30 09:45:28;;;;;;;11.50;3.47;;;;;;;25.02;100.00;96593.69;5011222;28;20048;-78
2022/10/30 09:48:00;;;;;;;13.23;3.30;;;;;;;25.54;100.00;96592.69;5022020;28;20033;-78
2022/10/30 09:50:34;;;;;;;11.95;4.38;;;;;;;25.33;100.00;96588.84;5019353;28;20038;-78
2022/10/30 09:53:37;;;;;;;10.52;3.85;;;;;;;25.50;100.00;96586.97;5039785;28;20033;-77
2022/10/30 09:56:43;;;;;;;16.35;4.28;;;;;;;25.91;89.72;96589.50;5011712;28;20506;-77
2022/10/30 09:59:19;;;;;;;13.02;4.10;;;;;;;26.22;88.33;96580.75;5019652;28;20092;-76
2022/10/30 10:02:01;;;;;;;11.95;3.80;;;;;;;26.61;87.55;96575.31;5027097;28;20103;-77
2022/10/30 10:04:42;;;;;;;14.70;3.60;;;;;;;26.34;83.78;96580.63;5028225;28;20037;-77
2022/10/30 10:07:24;;;;;;;10.32;3.30;;;;;;;27.25;79.33;96582.72;5028597;28;20050;-76
2022/10/30 10:10:16;;;;;;;12.27;3.55;;;;;;;27.32;75.59;96583.31;5040400;28;20041;-76
2022/10/30 10:12:53;;;;;;;11.90;3.72;;;;;;;27.86;67.79;96577.78;5016423;28;20589;-76
2022/10/30 10:15:43;;;;;;;13.63;3.20;;;;;;;27.53;69.74;96578.88;5021856;28;20165;-76
2022/10/30 10:18:19;;;;;;;15.95;3.15;;;;;;;27.75;68.40;96581.50;5020382;28;20447;-76
2022/10/30 10:20:50;;;;;;;11.57;3.35;;;;;;;27.34;72.60;96583.88;5011015;28;20125;-77
2022/10/30 10:23:31;;;;;;;7.75;3.30;;;;;;;27.27;69.63;96580.59;5023909;28;20032;-77
2022/10/30 10:26:03;;;;;;;6.70;2.70;;;;;;;27.91;67.93;96575.13;5031341;28;20041;-77
2022/10/30 10:28:44;;;;;;;10.43;3.35;;;;;;;28.19;65.27;96575.81;5032119;28;20055;-76
2022/10/30 10:31:40;;;;;;;10.40;3.20;;;;;;;28.39;67.27;96578.66;5014601;28;20025;-77
2022/10/30 10:34:31;;;;;;;10.27;3.25;;;;;;;28.92;66.06;96580.44;5029139;28;20574;-77
2022/10/30 10:37:15;;;;;;;10.02;3.10;;;;;;;28.33;63.43;96574.25;5027449;28;20056;-77
2022/10/30 10:39:58;;;;;;;9.18;2.85;;;;;;;28.99;60.69;96583.69;5031689;28;20066;-77
2022/10/30 10:42:31;;;;;;;;;;;;;;;29.02;51.45;96572.38;5032098;28;20487;-76
2022/10/30 10:45:35;;;;;;;12.00;3.50;;;;;;;28.52;54.68;96573.84;5030280;28;20569;-77
2022/10/30 10:48:16;;;;;;;10.75;3.20;;;;;;;29.09;47.53;96575.63;5031206;28;20036;-77
2022/10/30 10:51:08;;;;;;;10.20;3.22;;;;;;;29.62;58.39;96575.41;5030421;28;20045;-77
2022/10/30 10:53:40;;;;;;;12.77;4.20;;;;;;;28.77;78.74;96573.91;5029414;28;20041;-77
2022/10/30 10:56:06;;;;;;;11.25;3.72;;;;;;;28.65;69.80;96567.91;5031383;28;20035;-76
2022/10/30 10:58:54;;;;;;;11.35;3.17;;;;;;;29.68;66.09;96563.44;5030771;28;20117;-77
2022/10/30 11:01:43;;;;;;;12.10;3.08;;;;;;;29.74;50.61;96567.78;5011597;28;20491;-77
2022/10/30 11:04:17;;;;;;;9.80;2.85;;;;;;;29.62;46.72;96564.56;5023332;28;20109;-76
2022/10/30 11:06:49;;;;;;;11.32;3.05;;;;;;;29.53;47.97;96562.34;5031216;28;20039;-77
2022/10/30 11:09:20;;;;;;;7.68;2.45;;;;;;;28.60;45.01;96565.19;5030376;28;20088;-77
2022/10/30 11:11:47;;;;;;;10.07;3.22;;;;;;;29.00;43.82;96558.28;5030913;28;20176;-77
2022/10/30 11:14:18;;;;;;;8.23;2.72;;;;;;;29.06;49.14;96563.41;5013212;28;20021;-77
2022/10/30 11:17:11;;;;;;;8.23;2.65;;;;;;;29.96;42.55;96541.16;5030646;28;20192;-77
2022/10/30 11:19:37;;;;;;;7.57;2.70;;;;;;;30.01;45.44;96552.00;5031204;28;20120;-77
2022/10/30 11:22:20;;;;;;;11.55;2.75;;;;;;;30.35;42.79;96545.13;5030170;28;20684;-77
2022/10/30 11:24:46;;;;;;;8.55;2.28;;;;;;;29.45;43.32;96552.06;5030641;28;20112;-77
2022/10/30 11:27:22;;;;;;;8.02;2.45;;;;;;;29.82;37.29;96553.69;5029403;28;20491;-77
2022/10/30 11:29:55;;;;;;;6.93;2.33;;;;;;;29.66;36.85;96546.66;5030596;28;20033;-77
2022/10/30 11:32:26;;;;;;;7.55;2.25;;;;;;;29.83;32.94;96545.25;5030811;28;20365;-77
2022/10/30 11:35:06;;;;;;;6.00;2.35;;;;;;;30.10;35.08;96538.69;5030139;28;20041;-77
2022/10/30 11:37:37;;;;;;;8.55;2.10;;;;;;;29.67;33.92;96540.94;5031035;28;20036;-77
2022/10/30 11:40:08;;;;;;;5.80;2.05;;;;;;;29.60;33.74;96541.22;5031146;28;20044;-77
2022/10/30 11:42:35;;;;;;;6.13;2.03;;;;;;;30.25;32.62;96538.66;5031356;28;20068;-77